createdAt,value
2022-10-18T00:01:01.525Z,28.57
2022-10-18T00:06:05.426Z,27.93
2022-10-18T00:11:08.240Z,28.53
2022-10-18T00:16:14.424Z,28.33
2022-10-18T00:21:20.271Z,29.33
2022-10-18T00:26:25.829Z,25.27
2022-10-18T00:31:32.924Z,27.47
2022-10-18T00:36:35.470Z,28.70
2022-10-18T00:41:38.462Z,30.00
2022-10-18T00:46:47.365Z,29.73
2022-10-18T00:51:52.744Z,30.83
2022-10-18T00:56:55.217Z,28.73
2022-10-18T01:01:57.666Z,29.33
2022-10-18T01:07:00.095Z,30.00
2022-10-18T01:12:47.636Z,29.47
2022-10-18T01:17:52.803Z,27.40
2022-10-18T01:23:07.957Z,29.60
2022-10-18T01:28:29.816Z,29.77
2022-10-18T01:33:51.113Z,29.10
2022-10-18T01:38:57.581Z,28.43
2022-10-18T01:44:03.166Z,29.17
2022-10-18T01:49:05.823Z,30.07
2022-10-18T01:54:10.149Z,26.93
2022-10-18T01:59:20.878Z,30.20
2022-10-18T02:04:23.184Z,27.73
2022-10-18T02:09:38.601Z,28.90
2022-10-18T02:14:44.192Z,30.40
2022-10-18T02:19:50.860Z,29.03
2022-10-18T02:24:56.951Z,29.77
2022-10-18T02:29:59.426Z,28.17
2022-10-18T02:35:11.668Z,28.80
2022-10-18T02:40:14.542Z,28.57
2022-10-18T02:45:17.369Z,26.13
2022-10-18T02:50:19.754Z,25.77
2022-10-18T02:55:22.208Z,27.23
2022-10-18T03:00:24.708Z,27.07
2022-10-18T03:05:27.126Z,26.40
2022-10-18T03:10:29.532Z,24.87
2022-10-18T03:15:31.882Z,26.90
2022-10-18T03:20:34.778Z,25.40
2022-10-18T03:25:37.191Z,22.90
2022-10-18T03:30:39.598Z,24.00
2022-10-18T03:35:42.251Z,23.83
2022-10-18T03:40:44.661Z,28.23
2022-10-18T03:45:47.078Z,25.63
2022-10-18T03:50:49.519Z,23.27
2022-10-18T03:55:53.469Z,23.17
2022-10-18T04:00:56.043Z,22.70
2022-10-18T04:06:00.705Z,27.40
2022-10-18T04:11:08.623Z,26.77
2022-10-18T04:16:11.062Z,27.67
2022-10-18T04:21:13.626Z,31.93
2022-10-18T04:26:19.237Z,25.70
2022-10-18T04:31:21.656Z,25.70
2022-10-18T04:36:24.118Z,28.37
2022-10-18T04:41:26.571Z,28.67
2022-10-18T04:46:29.111Z,28.53
2022-10-18T04:51:31.556Z,28.63
2022-10-18T04:56:34.149Z,27.03
2022-10-18T05:01:36.720Z,27.50
2022-10-18T05:06:39.266Z,27.47
2022-10-18T05:11:41.611Z,24.17
2022-10-18T05:16:43.945Z,27.23
2022-10-18T05:21:46.422Z,30.67
2022-10-18T05:26:48.778Z,31.07
2022-10-18T05:31:51.475Z,29.63
2022-10-18T05:36:53.872Z,29.20
2022-10-18T05:41:56.758Z,33.00
2022-10-18T05:46:59.129Z,36.83
2022-10-18T05:52:01.582Z,40.97
2022-10-18T05:57:04.033Z,43.47
2022-10-18T06:02:06.949Z,40.23
2022-10-18T06:07:11.371Z,39.73
2022-10-18T06:12:13.802Z,42.97
2022-10-18T06:17:16.351Z,42.40
2022-10-18T06:22:18.736Z,41.97
2022-10-18T06:27:21.173Z,41.53
2022-10-18T06:32:23.570Z,46.43
2022-10-18T06:37:26.012Z,44.57
2022-10-18T06:42:28.832Z,42.50
2022-10-18T06:47:31.176Z,39.73
2022-10-18T06:52:33.766Z,44.77
2022-10-18T06:57:36.415Z,45.83
2022-10-18T07:02:41.387Z,43.07
2022-10-18T07:07:43.761Z,42.50
2022-10-18T07:12:46.088Z,44.83
2022-10-18T07:17:49.186Z,44.23
2022-10-18T07:22:55.677Z,47.37
2022-10-18T07:27:58.187Z,48.93
2022-10-18T07:33:00.522Z,47.67
2022-10-18T07:38:02.824Z,49.77
2022-10-18T07:43:06.250Z,47.73
2022-10-18T07:48:09.984Z,47.17
2022-10-18T07:53:12.460Z,48.80
2022-10-18T07:58:14.917Z,46.00
2022-10-18T08:03:17.242Z,46.37
2022-10-18T08:08:21.118Z,41.60
2022-10-18T08:13:23.651Z,37.00
2022-10-18T08:18:26.112Z,38.73
2022-10-18T08:23:29.151Z,39.10
2022-10-18T08:28:31.767Z,38.23
2022-10-18T08:33:35.884Z,36.30
2022-10-18T08:38:39.994Z,36.17
2022-10-18T08:43:53.718Z,35.30
2022-10-18T08:48:57.143Z,36.57
2022-10-18T08:54:22.852Z,36.53
2022-10-18T08:59:25.716Z,34.17
2022-10-18T09:04:54.889Z,33.80
2022-10-18T09:10:21.539Z,32.77
2022-10-18T09:15:42.873Z,35.17
2022-10-18T09:20:58.639Z,31.97
2022-10-18T09:26:13.871Z,32.97
2022-10-18T09:31:25.540Z,32.90
2022-10-18T09:36:37.853Z,35.43
2022-10-18T09:41:40.326Z,36.10
2022-10-18T09:46:49.822Z,29.97
2022-10-18T09:51:54.379Z,40.10
2022-10-18T09:57:05.578Z,39.00
2022-10-18T10:02:14.775Z,41.30
2022-10-18T10:07:24.171Z,40.70
2022-10-18T10:12:35.738Z,37.47
2022-10-18T10:17:38.148Z,30.20
2022-10-18T10:22:42.505Z,27.13
2022-10-18T10:27:46.024Z,27.23
2022-10-18T10:32:49.884Z,28.13
2022-10-18T10:37:53.705Z,29.87
2022-10-18T10:43:37.675Z,27.90
2022-10-18T10:49:21.783Z,27.77
2022-10-18T10:54:26.085Z,29.00
2022-10-18T10:59:32.537Z,28.93
2022-10-18T11:04:35.042Z,30.37
2022-10-18T11:10:08.459Z,30.23
2022-10-18T11:15:12.054Z,31.87
2022-10-18T11:20:32.858Z,29.47
2022-10-18T11:25:52.449Z,28.63
2022-10-18T11:31:31.244Z,28.23
2022-10-18T11:36:45.486Z,23.60
2022-10-18T11:42:40.281Z,21.33
2022-10-18T11:48:24.715Z,20.47
2022-10-18T11:53:35.938Z,15.63
2022-10-18T11:58:42.832Z,10.87
2022-10-18T12:04:14.323Z,11.03
2022-10-18T12:09:31.328Z,8.87
2022-10-18T12:14:40.435Z,7.17
2022-10-18T12:19:43.489Z,6.87
2022-10-18T12:24:45.874Z,6.10
2022-10-18T12:29:56.162Z,6.17
2022-10-18T12:35:04.739Z,6.10
2022-10-18T12:40:24.536Z,6.70
2022-10-18T12:45:35.521Z,5.43
2022-10-18T12:50:43.179Z,5.07
2022-10-18T12:55:49.406Z,4.53
2022-10-18T13:00:53.866Z,5.30
2022-10-18T13:06:02.920Z,9.67
2022-10-18T13:11:08.885Z,7.03
2022-10-18T13:16:23.047Z,6.97
2022-10-18T13:21:34.709Z,7.90
2022-10-18T13:27:09.714Z,7.90
2022-10-18T13:32:35.476Z,8.50
2022-10-18T13:37:38.074Z,8.27
2022-10-18T13:42:40.584Z,8.30
2022-10-18T13:47:43.023Z,8.70
2022-10-18T13:53:04.392Z,9.90
2022-10-18T13:58:18.929Z,10.47
2022-10-18T14:03:57.546Z,11.17
2022-10-18T14:09:19.370Z,10.07
2022-10-18T14:14:45.655Z,10.13
2022-10-18T14:20:04.544Z,10.80
2022-10-18T14:25:29.959Z,11.87
2022-10-18T14:30:32.666Z,12.30
2022-10-18T14:35:35.827Z,13.57
2022-10-18T14:40:40.653Z,11.40
2022-10-18T14:45:43.391Z,13.70
2022-10-18T14:50:59.348Z,13.57
2022-10-18T14:56:05.620Z,18.87
2022-10-18T15:01:08.217Z,19.00
2022-10-18T15:06:20.287Z,16.07
2022-10-18T15:11:24.208Z,16.97
2022-10-18T15:16:29.675Z,16.07
2022-10-18T15:21:33.323Z,17.10
2022-10-18T15:26:35.891Z,21.67
2022-10-18T15:31:43.023Z,15.90
2022-10-18T15:36:46.745Z,14.50
2022-10-18T15:42:01.126Z,16.23
2022-10-18T15:47:12.529Z,15.97
2022-10-18T15:52:37.439Z,16.30
2022-10-18T15:57:40.558Z,15.13
2022-10-18T16:02:43.051Z,14.27
2022-10-18T16:07:45.476Z,13.80
2022-10-18T16:12:47.976Z,13.70
2022-10-18T16:17:51.008Z,12.10
2022-10-18T16:22:53.432Z,12.23
2022-10-18T16:27:55.882Z,12.80
2022-10-18T16:32:58.299Z,10.10
2022-10-18T16:38:00.632Z,10.60
2022-10-18T16:43:03.070Z,11.67
2022-10-18T16:48:05.871Z,10.87
2022-10-18T16:53:08.402Z,11.43
2022-10-18T16:58:20.674Z,10.77
2022-10-18T17:03:24.334Z,11.53
2022-10-18T17:08:28.173Z,12.93
2022-10-18T17:13:30.592Z,13.20
2022-10-18T17:18:33.042Z,12.87
2022-10-18T17:23:35.481Z,13.53
2022-10-18T17:28:38.516Z,12.50
2022-10-18T17:33:41.436Z,11.90
2022-10-18T17:38:44.026Z,11.13
2022-10-18T17:43:48.261Z,11.00
2022-10-18T17:48:50.898Z,12.23
2022-10-18T17:53:54.335Z,11.13
2022-10-18T17:58:56.743Z,9.60
2022-10-18T18:04:01.301Z,8.90
2022-10-18T18:09:07.834Z,7.90
2022-10-18T18:14:12.061Z,10.47
2022-10-18T18:19:15.842Z,8.73
2022-10-18T18:24:24.573Z,8.73
2022-10-18T18:29:28.100Z,8.77
2022-10-18T18:34:30.724Z,8.63
2022-10-18T18:39:35.818Z,9.80
2022-10-18T18:44:38.272Z,13.57
2022-10-18T18:49:41.128Z,15.17
2022-10-18T18:54:43.585Z,11.83
2022-10-18T18:59:46.041Z,11.90
2022-10-18T19:04:48.481Z,11.00
2022-10-18T19:09:51.027Z,11.60
2022-10-18T19:14:53.387Z,12.93
2022-10-18T19:19:55.725Z,14.47
2022-10-18T19:24:58.187Z,12.17
2022-10-18T19:30:00.556Z,13.47
2022-10-18T19:35:03.134Z,14.00
2022-10-18T19:40:06.348Z,17.40
2022-10-18T19:45:09.254Z,14.43
2022-10-18T19:50:11.654Z,14.60
2022-10-18T19:55:14.273Z,15.03
2022-10-18T20:00:19.372Z,14.77
2022-10-18T20:05:22.173Z,16.43
2022-10-18T20:10:24.706Z,14.83
2022-10-18T20:15:27.914Z,14.83
2022-10-18T20:20:30.626Z,14.50
2022-10-18T20:25:33.007Z,15.40
2022-10-18T20:30:35.431Z,15.80
2022-10-18T20:35:37.903Z,14.63
2022-10-18T20:40:40.347Z,15.67
2022-10-18T20:45:42.829Z,14.33
2022-10-18T20:50:45.285Z,15.33
2022-10-18T20:55:49.992Z,14.63
2022-10-18T21:00:52.528Z,14.50
2022-10-18T21:05:56.100Z,15.00
2022-10-18T21:11:01.454Z,15.73
2022-10-18T21:16:04.997Z,14.90
2022-10-18T21:21:33.887Z,17.63
2022-10-18T21:26:36.908Z,17.73
2022-10-18T21:31:40.878Z,16.37
2022-10-18T21:36:44.525Z,17.17
2022-10-18T21:41:47.370Z,15.73
2022-10-18T21:46:50.844Z,15.60
2022-10-18T21:51:53.539Z,14.73
2022-10-18T21:56:56.436Z,13.30
2022-10-18T22:02:01.412Z,13.10
2022-10-18T22:07:04.974Z,12.33
2022-10-18T22:12:10.737Z,13.50
2022-10-18T22:17:13.775Z,13.00
2022-10-18T22:22:16.542Z,14.80
2022-10-18T22:27:19.305Z,12.37
2022-10-18T22:32:22.090Z,13.37
2022-10-18T22:37:24.833Z,12.83
2022-10-18T22:42:27.604Z,13.90
2022-10-18T22:47:30.381Z,13.90
2022-10-18T22:52:33.080Z,14.97
2022-10-18T22:57:36.110Z,15.10
2022-10-18T23:02:38.550Z,13.97
2022-10-18T23:07:41.007Z,13.63
2022-10-18T23:12:43.365Z,13.57
2022-10-18T23:17:45.774Z,13.67
2022-10-18T23:22:48.342Z,13.93
2022-10-18T23:27:50.700Z,14.07
2022-10-18T23:32:53.093Z,13.67
2022-10-18T23:37:55.448Z,15.80
2022-10-18T23:42:57.907Z,14.13
2022-10-18T23:48:00.757Z,15.47
2022-10-18T23:53:03.560Z,15.10
2022-10-18T23:58:06.410Z,15.03
